createdAt,value
2023-03-29T00:00:15.479Z,499.00
2023-03-29T00:01:35.857Z,496.00
2023-03-29T00:02:16.579Z,494.00
2023-03-29T00:03:15.616Z,493.00
2023-03-29T00:04:15.589Z,493.00
2023-03-29T00:05:15.506Z,497.00
2023-03-29T00:06:15.514Z,497.00
2023-03-29T00:07:15.505Z,494.00
2023-03-29T00:08:15.507Z,496.00
2023-03-29T00:09:15.493Z,497.00
2023-03-29T00:10:15.486Z,499.00
2023-03-29T00:11:15.557Z,501.00
2023-03-29T00:12:15.624Z,498.00
2023-03-29T00:13:15.779Z,497.00
2023-03-29T00:14:15.747Z,499.00
2023-03-29T00:15:15.803Z,498.00
2023-03-29T00:16:15.903Z,497.00
2023-03-29T00:17:15.917Z,495.00
2023-03-29T00:18:15.998Z,495.00
2023-03-29T00:19:16.015Z,497.00
2023-03-29T00:20:16.082Z,498.00
2023-03-29T00:21:16.136Z,499.00
2023-03-29T00:22:16.190Z,497.00
2023-03-29T00:23:16.246Z,496.00
2023-03-29T00:24:16.304Z,495.00
2023-03-29T00:25:16.386Z,497.00
2023-03-29T00:26:16.469Z,497.00
2023-03-29T00:27:16.515Z,497.00
2023-03-29T00:28:16.540Z,496.00
2023-03-29T00:29:16.647Z,494.00
2023-03-29T00:30:16.702Z,496.00
2023-03-29T00:31:16.791Z,494.00
2023-03-29T00:32:16.824Z,493.00
2023-03-29T00:33:16.854Z,493.00
2023-03-29T00:34:16.921Z,495.00
2023-03-29T00:35:16.983Z,493.00
2023-03-29T00:36:17.043Z,493.00
2023-03-29T00:37:17.112Z,492.00
2023-03-29T00:38:17.157Z,492.00
2023-03-29T00:39:17.221Z,494.00
2023-03-29T00:40:17.309Z,493.00
2023-03-29T00:41:17.354Z,493.00
2023-03-29T00:42:17.424Z,491.00
2023-03-29T00:43:17.458Z,492.00
2023-03-29T00:44:17.548Z,491.00
2023-03-29T00:45:17.593Z,493.00
2023-03-29T00:46:17.693Z,493.00
2023-03-29T00:47:17.706Z,495.00
2023-03-29T00:48:17.746Z,494.00
2023-03-29T00:49:17.809Z,494.00
2023-03-29T00:50:17.876Z,493.00
2023-03-29T00:51:17.965Z,494.00
2023-03-29T00:52:18.021Z,495.00
2023-03-29T00:53:18.060Z,495.00
2023-03-29T00:54:18.113Z,493.00
2023-03-29T00:55:18.204Z,493.00
2023-03-29T00:56:18.255Z,494.00
2023-03-29T00:57:18.373Z,496.00
2023-03-29T00:58:18.355Z,497.00
2023-03-29T00:59:18.425Z,500.00
2023-03-29T01:00:18.468Z,503.00
2023-03-29T01:01:18.638Z,504.00
2023-03-29T01:02:18.605Z,500.00
2023-03-29T01:03:18.688Z,498.00
2023-03-29T01:04:18.726Z,499.00
2023-03-29T01:05:18.741Z,495.00
2023-03-29T01:06:18.828Z,493.00
2023-03-29T01:07:18.909Z,494.00
2023-03-29T01:08:18.929Z,497.00
2023-03-29T01:09:18.966Z,495.00
2023-03-29T01:10:19.036Z,494.00
2023-03-29T01:11:19.217Z,493.00
2023-03-29T01:12:19.171Z,492.00
2023-03-29T01:13:19.238Z,493.00
2023-03-29T01:14:19.289Z,495.00
2023-03-29T01:15:19.345Z,497.00
2023-03-29T01:16:19.444Z,500.00
2023-03-29T01:17:19.447Z,500.00
2023-03-29T01:18:19.479Z,500.00
2023-03-29T01:19:19.531Z,502.00
2023-03-29T01:20:19.594Z,504.00
2023-03-29T01:21:19.657Z,503.00
2023-03-29T01:22:19.714Z,501.00
2023-03-29T01:23:19.778Z,501.00
2023-03-29T01:24:19.855Z,501.00
2023-03-29T01:25:19.910Z,500.00
2023-03-29T01:26:19.980Z,501.00
2023-03-29T01:27:20.031Z,498.00
2023-03-29T01:28:20.122Z,495.00
2023-03-29T01:29:20.164Z,498.00
2023-03-29T01:30:20.230Z,498.00
2023-03-29T01:31:20.313Z,496.00
2023-03-29T01:32:20.408Z,494.00
2023-03-29T01:33:20.589Z,496.00
2023-03-29T01:34:20.759Z,494.00
2023-03-29T01:35:20.995Z,493.00
2023-03-29T01:36:21.223Z,492.00
2023-03-29T01:37:21.349Z,490.00
2023-03-29T01:38:21.536Z,493.00
2023-03-29T01:39:21.774Z,492.00
2023-03-29T01:40:21.969Z,492.00
2023-03-29T01:41:22.152Z,491.00
2023-03-29T01:42:22.372Z,491.00
2023-03-29T01:43:22.568Z,490.00
2023-03-29T01:44:22.762Z,487.00
2023-03-29T01:45:22.982Z,489.00
2023-03-29T01:46:23.155Z,489.00
2023-03-29T01:47:23.353Z,489.00
2023-03-29T01:48:23.486Z,488.00
2023-03-29T01:49:23.624Z,490.00
2023-03-29T01:50:23.733Z,492.00
2023-03-29T01:51:24.001Z,493.00
2023-03-29T01:52:24.216Z,494.00
2023-03-29T01:53:24.407Z,493.00
2023-03-29T01:54:24.580Z,494.00
2023-03-29T01:55:24.778Z,491.00
2023-03-29T01:56:24.977Z,491.00
2023-03-29T01:57:25.370Z,490.00
2023-03-29T01:58:25.411Z,491.00
2023-03-29T01:59:25.606Z,491.00
2023-03-29T02:00:25.852Z,492.00
2023-03-29T02:01:26.105Z,491.00
2023-03-29T02:02:26.412Z,490.00
2023-03-29T02:03:26.396Z,490.00
2023-03-29T02:04:26.317Z,491.00
2023-03-29T02:05:26.311Z,491.00
2023-03-29T02:06:26.297Z,492.00
2023-03-29T02:07:26.280Z,490.00
2023-03-29T02:08:26.308Z,490.00
2023-03-29T02:09:26.353Z,489.00
2023-03-29T02:10:26.344Z,489.00
2023-03-29T02:11:26.332Z,490.00
2023-03-29T02:12:26.348Z,491.00
2023-03-29T02:13:26.316Z,491.00
2023-03-29T02:14:26.305Z,490.00
2023-03-29T02:15:26.369Z,489.00
2023-03-29T02:16:26.289Z,490.00
2023-03-29T02:17:26.366Z,492.00
2023-03-29T02:18:26.290Z,491.00
2023-03-29T02:19:26.267Z,492.00
2023-03-29T02:20:26.260Z,493.00
2023-03-29T02:21:26.272Z,493.00
2023-03-29T02:22:26.260Z,491.00
2023-03-29T02:23:26.263Z,489.00
2023-03-29T02:24:26.261Z,489.00
2023-03-29T02:25:26.260Z,490.00
2023-03-29T02:26:26.265Z,489.00
2023-03-29T02:27:26.234Z,488.00
2023-03-29T02:28:26.215Z,487.00
2023-03-29T02:29:26.241Z,489.00
2023-03-29T02:30:26.195Z,490.00
2023-03-29T02:31:26.252Z,490.00
2023-03-29T02:32:26.249Z,492.00
2023-03-29T02:33:26.173Z,491.00
2023-03-29T02:34:26.205Z,492.00
2023-03-29T02:35:26.160Z,491.00
2023-03-29T02:36:26.151Z,493.00
2023-03-29T02:37:26.142Z,492.00
2023-03-29T02:38:26.153Z,494.00
2023-03-29T02:39:26.127Z,492.00
2023-03-29T02:40:26.160Z,493.00
2023-03-29T02:41:26.153Z,494.00
2023-03-29T02:42:26.120Z,492.00
2023-03-29T02:43:26.231Z,491.00
2023-03-29T02:44:26.095Z,488.00
2023-03-29T02:45:26.087Z,486.00
2023-03-29T02:46:26.144Z,486.00
2023-03-29T02:47:26.115Z,487.00
2023-03-29T02:48:26.071Z,487.00
2023-03-29T02:49:26.104Z,488.00
2023-03-29T02:50:26.158Z,489.00
2023-03-29T02:51:26.196Z,491.00
2023-03-29T02:52:26.264Z,490.00
2023-03-29T02:53:26.350Z,491.00
2023-03-29T02:54:26.403Z,491.00
2023-03-29T02:55:26.446Z,492.00
2023-03-29T02:56:26.523Z,491.00
2023-03-29T02:57:26.822Z,489.00
2023-03-29T02:58:26.687Z,487.00
2023-03-29T02:59:26.642Z,486.00
2023-03-29T03:00:26.698Z,485.00
2023-03-29T03:01:26.759Z,489.00
2023-03-29T03:02:26.794Z,491.00
2023-03-29T03:03:26.879Z,493.00
2023-03-29T03:04:26.864Z,493.00
2023-03-29T03:05:26.944Z,493.00
2023-03-29T03:06:26.961Z,493.00
2023-03-29T03:07:27.065Z,495.00
2023-03-29T03:08:27.103Z,496.00
2023-03-29T03:09:27.139Z,495.00
2023-03-29T03:10:27.188Z,495.00
2023-03-29T03:11:27.244Z,495.00
2023-03-29T03:12:27.253Z,495.00
2023-03-29T03:13:27.414Z,498.00
2023-03-29T03:14:27.581Z,496.00
2023-03-29T03:15:27.743Z,498.00
2023-03-29T03:16:28.076Z,498.00
2023-03-29T03:17:28.097Z,500.00
2023-03-29T03:18:28.062Z,499.00
2023-03-29T03:19:28.064Z,498.00
2023-03-29T03:20:28.047Z,499.00
2023-03-29T03:21:28.048Z,496.00
2023-03-29T03:22:28.026Z,496.00
2023-03-29T03:23:28.009Z,495.00
2023-03-29T03:24:28.017Z,495.00
2023-03-29T03:25:28.006Z,494.00
2023-03-29T03:26:27.978Z,495.00
2023-03-29T03:27:27.970Z,496.00
2023-03-29T03:28:27.996Z,493.00
2023-03-29T03:29:27.983Z,494.00
2023-03-29T03:30:27.946Z,496.00
2023-03-29T03:31:28.005Z,494.00
2023-03-29T03:32:27.969Z,492.00
2023-03-29T03:33:27.959Z,489.00
2023-03-29T03:34:27.945Z,490.00
2023-03-29T03:35:27.959Z,490.00
2023-03-29T03:36:27.930Z,491.00
2023-03-29T03:37:27.915Z,490.00
2023-03-29T03:38:27.915Z,491.00
2023-03-29T03:39:27.891Z,491.00
2023-03-29T03:40:28.403Z,490.00
2023-03-29T03:41:27.874Z,493.00
2023-03-29T03:42:27.872Z,492.00
2023-03-29T03:43:27.904Z,491.00
2023-03-29T03:44:27.874Z,491.00
2023-03-29T03:45:27.867Z,490.00
2023-03-29T03:46:29.605Z,490.00
2023-03-29T03:47:27.902Z,489.00
2023-03-29T03:48:27.835Z,489.00
2023-03-29T03:49:27.819Z,491.00
2023-03-29T03:50:27.849Z,492.00
2023-03-29T03:51:27.824Z,491.00
2023-03-29T03:52:27.824Z,492.00
2023-03-29T03:53:27.805Z,492.00
2023-03-29T03:54:27.865Z,495.00
2023-03-29T03:55:27.918Z,497.00
2023-03-29T03:56:27.951Z,498.00
2023-03-29T03:57:27.996Z,498.00
2023-03-29T03:58:28.074Z,497.00
2023-03-29T03:59:28.114Z,494.00
2023-03-29T04:00:28.187Z,492.00
2023-03-29T04:01:28.251Z,491.00
2023-03-29T04:02:28.384Z,491.00
2023-03-29T04:03:28.413Z,493.00
2023-03-29T04:04:28.436Z,492.00
2023-03-29T04:05:28.432Z,492.00
2023-03-29T04:06:28.464Z,489.00
2023-03-29T04:07:28.512Z,490.00
2023-03-29T04:08:28.566Z,491.00
2023-03-29T04:09:28.612Z,494.00
2023-03-29T04:10:28.668Z,493.00
2023-03-29T04:11:28.712Z,497.00
2023-03-29T04:12:28.722Z,498.00
2023-03-29T04:13:28.770Z,499.00
2023-03-29T04:14:28.801Z,496.00
2023-03-29T04:15:28.871Z,494.00
2023-03-29T04:16:28.912Z,496.00
2023-03-29T04:17:28.990Z,496.00
2023-03-29T04:18:29.073Z,493.00
2023-03-29T04:19:29.067Z,492.00
2023-03-29T04:20:29.146Z,490.00
2023-03-29T04:21:29.185Z,491.00
2023-03-29T04:22:29.239Z,491.00
2023-03-29T04:23:29.320Z,492.00
2023-03-29T04:24:29.376Z,494.00
2023-03-29T04:25:29.415Z,493.00
2023-03-29T04:26:29.486Z,494.00
2023-03-29T04:27:29.503Z,495.00
2023-03-29T04:28:29.525Z,494.00
2023-03-29T04:29:29.598Z,493.00
2023-03-29T04:30:29.634Z,494.00
2023-03-29T04:31:29.763Z,497.00
2023-03-29T04:32:29.760Z,496.00
2023-03-29T04:33:29.798Z,498.00
2023-03-29T04:34:29.835Z,497.00
2023-03-29T04:35:29.903Z,497.00
2023-03-29T04:36:29.933Z,495.00
2023-03-29T04:37:29.995Z,495.00
2023-03-29T04:38:30.070Z,495.00
2023-03-29T04:39:30.151Z,497.00
2023-03-29T04:40:30.186Z,496.00
2023-03-29T04:41:30.239Z,498.00
2023-03-29T04:42:30.301Z,500.00
2023-03-29T04:43:30.367Z,502.00
2023-03-29T04:44:30.448Z,501.00
2023-03-29T04:45:30.487Z,503.00
2023-03-29T04:46:30.705Z,502.00
2023-03-29T04:47:30.641Z,502.00
2023-03-29T04:48:30.647Z,500.00
2023-03-29T04:49:30.696Z,498.00
2023-03-29T04:50:30.745Z,498.00
2023-03-29T04:51:30.816Z,495.00
2023-03-29T04:52:30.900Z,496.00
2023-03-29T04:53:30.876Z,496.00
2023-03-29T04:54:30.948Z,497.00
2023-03-29T04:55:30.988Z,495.00
2023-03-29T04:56:31.053Z,494.00
2023-03-29T04:57:31.094Z,494.00
2023-03-29T04:58:32.482Z,495.00
2023-03-29T04:59:31.188Z,496.00
2023-03-29T05:00:31.251Z,499.00
2023-03-29T05:01:31.415Z,498.00
2023-03-29T05:02:31.369Z,494.00
2023-03-29T05:03:31.415Z,494.00
2023-03-29T05:04:31.566Z,495.00
2023-03-29T05:05:31.496Z,491.00
2023-03-29T05:06:31.546Z,491.00
2023-03-29T05:07:31.612Z,492.00
2023-03-29T05:08:31.679Z,493.00
2023-03-29T05:09:33.725Z,496.00
2023-03-29T05:10:31.749Z,496.00
2023-03-29T05:11:31.719Z,494.00
2023-03-29T05:12:31.700Z,496.00
2023-03-29T05:13:31.713Z,495.00
2023-03-29T05:14:31.697Z,496.00
2023-03-29T05:15:31.714Z,497.00
2023-03-29T05:16:31.741Z,497.00
2023-03-29T05:17:31.738Z,496.00
2023-03-29T05:18:31.701Z,493.00
2023-03-29T05:19:31.671Z,494.00
2023-03-29T05:20:31.667Z,495.00
2023-03-29T05:21:31.652Z,497.00
2023-03-29T05:22:31.650Z,498.00
2023-03-29T05:23:31.680Z,497.00
2023-03-29T05:24:31.628Z,497.00
2023-03-29T05:25:31.925Z,498.00
2023-03-29T05:26:31.627Z,498.00
2023-03-29T05:27:31.605Z,504.00
2023-03-29T05:28:31.601Z,519.00
2023-03-29T05:29:31.579Z,533.00
2023-03-29T05:30:31.586Z,556.00
2023-03-29T05:31:31.645Z,597.00
2023-03-29T05:32:31.576Z,629.00
2023-03-29T05:33:31.564Z,679.00
2023-03-29T05:34:31.587Z,709.00
2023-03-29T05:35:31.551Z,761.00
2023-03-29T05:36:31.534Z,793.00
2023-03-29T05:37:31.552Z,796.00
2023-03-29T05:38:31.520Z,796.00
2023-03-29T05:39:31.608Z,806.00
2023-03-29T05:40:31.630Z,819.00
2023-03-29T05:41:31.674Z,819.00
2023-03-29T05:42:31.681Z,819.00
2023-03-29T05:43:31.781Z,816.00
2023-03-29T05:44:31.840Z,812.00
2023-03-29T05:45:31.889Z,810.00
2023-03-29T05:46:31.869Z,812.00
2023-03-29T05:47:31.926Z,815.00
2023-03-29T05:48:31.946Z,874.00
2023-03-29T05:49:31.949Z,878.00
2023-03-29T05:50:32.004Z,870.00
2023-03-29T05:51:32.008Z,871.00
2023-03-29T05:52:32.043Z,877.00
2023-03-29T05:53:32.055Z,886.00
2023-03-29T05:54:32.104Z,887.00
2023-03-29T05:55:32.210Z,891.00
2023-03-29T05:56:32.183Z,891.00
2023-03-29T05:57:32.160Z,892.00
2023-03-29T05:58:32.176Z,896.00
2023-03-29T05:59:32.216Z,900.00
2023-03-29T06:00:32.259Z,901.00
2023-03-29T06:01:32.301Z,904.00
2023-03-29T06:02:32.367Z,902.00
2023-03-29T06:03:32.448Z,900.00
2023-03-29T06:04:32.436Z,896.00
2023-03-29T06:05:32.368Z,895.00
2023-03-29T06:06:32.409Z,901.00
2023-03-29T06:07:32.398Z,903.00
2023-03-29T06:08:32.413Z,902.00
2023-03-29T06:09:32.422Z,898.00
2023-03-29T06:10:32.440Z,898.00
2023-03-29T06:11:32.480Z,893.00
2023-03-29T06:12:32.511Z,890.00
2023-03-29T06:13:32.506Z,892.00
2023-03-29T06:14:32.526Z,888.00
2023-03-29T06:15:32.565Z,882.00
2023-03-29T06:16:32.662Z,877.00
2023-03-29T06:17:32.578Z,876.00
2023-03-29T06:18:32.577Z,880.00
2023-03-29T06:19:32.581Z,878.00
2023-03-29T06:20:32.613Z,874.00
2023-03-29T06:21:32.620Z,870.00
2023-03-29T06:22:32.622Z,866.00
2023-03-29T06:23:32.608Z,865.00
2023-03-29T06:24:32.644Z,865.00
2023-03-29T06:25:32.634Z,864.00
2023-03-29T06:26:32.664Z,861.00
2023-03-29T06:27:32.670Z,860.00
2023-03-29T06:28:32.678Z,866.00
2023-03-29T06:29:32.691Z,868.00
2023-03-29T06:30:32.709Z,870.00
2023-03-29T06:31:33.064Z,870.00
2023-03-29T06:32:32.747Z,914.00
2023-03-29T06:33:32.733Z,904.00
2023-03-29T06:34:32.810Z,898.00
2023-03-29T06:35:32.794Z,1005.00
2023-03-29T06:36:32.775Z,1038.00
2023-03-29T06:37:32.867Z,1021.00
2023-03-29T06:38:32.799Z,986.00
2023-03-29T06:39:32.784Z,963.00
2023-03-29T06:40:33.492Z,956.00
2023-03-29T06:41:32.800Z,961.00
2023-03-29T06:42:32.803Z,988.00
2023-03-29T06:43:33.314Z,1080.00
2023-03-29T06:44:32.861Z,1093.00
2023-03-29T06:45:32.849Z,1104.00
2023-03-29T06:46:33.022Z,1100.00
2023-03-29T06:47:33.058Z,1101.00
2023-03-29T06:48:32.976Z,1095.00
2023-03-29T06:49:33.009Z,1084.00
2023-03-29T06:50:33.080Z,1075.00
2023-03-29T06:51:33.170Z,1074.00
2023-03-29T06:52:33.483Z,1076.00
2023-03-29T06:53:33.269Z,1073.00
2023-03-29T06:54:33.365Z,1078.00
2023-03-29T06:55:33.399Z,1087.00
2023-03-29T06:56:33.442Z,1084.00
2023-03-29T06:57:33.494Z,1079.00
2023-03-29T06:58:33.501Z,1077.00
2023-03-29T06:59:33.554Z,1078.00
2023-03-29T07:00:33.618Z,1096.00
2023-03-29T07:01:33.693Z,1054.00
2023-03-29T07:02:34.148Z,1070.00
2023-03-29T07:03:33.778Z,1080.00
2023-03-29T07:04:33.899Z,1086.00
2023-03-29T07:05:33.890Z,1090.00
2023-03-29T07:06:33.962Z,1098.00
2023-03-29T07:07:34.493Z,1096.00
2023-03-29T07:08:34.051Z,1102.00
2023-03-29T07:09:34.151Z,1102.00
2023-03-29T07:10:34.197Z,1108.00
2023-03-29T07:11:34.226Z,1114.00
2023-03-29T07:12:34.308Z,1105.00
2023-03-29T07:13:34.333Z,1113.00
2023-03-29T07:14:34.346Z,1122.00
2023-03-29T07:15:34.418Z,1120.00
2023-03-29T07:16:34.480Z,1057.00
2023-03-29T07:17:35.046Z,1115.00
2023-03-29T07:18:34.548Z,1074.00
2023-03-29T07:19:34.667Z,1003.00
2023-03-29T07:20:34.680Z,990.00
2023-03-29T07:21:36.700Z,979.00
2023-03-29T07:22:34.739Z,952.00
2023-03-29T07:23:34.727Z,912.00
2023-03-29T07:24:34.726Z,922.00
2023-03-29T07:25:34.724Z,939.00
2023-03-29T07:26:34.755Z,943.00
2023-03-29T07:27:35.011Z,951.00
2023-03-29T07:28:35.009Z,898.00
2023-03-29T07:29:34.738Z,980.00
2023-03-29T07:30:35.908Z,918.00
2023-03-29T07:31:34.687Z,888.00
2023-03-29T07:32:34.767Z,954.00
2023-03-29T07:33:35.099Z,927.00
2023-03-29T07:34:34.676Z,923.00
2023-03-29T07:35:34.656Z,874.00
2023-03-29T07:36:34.681Z,833.00
2023-03-29T07:37:34.991Z,809.00
2023-03-29T07:38:34.708Z,793.00
2023-03-29T07:39:34.617Z,791.00
2023-03-29T07:40:34.607Z,802.00
2023-03-29T07:41:34.573Z,843.00
2023-03-29T07:42:34.576Z,829.00
2023-03-29T07:43:34.590Z,813.00
2023-03-29T07:44:34.576Z,801.00
2023-03-29T07:45:34.575Z,847.00
2023-03-29T07:46:34.612Z,849.00
2023-03-29T07:47:34.611Z,845.00
2023-03-29T07:48:34.537Z,851.00
2023-03-29T07:49:35.011Z,853.00
2023-03-29T07:50:34.527Z,850.00
2023-03-29T07:51:34.524Z,777.00
2023-03-29T07:52:34.495Z,784.00
2023-03-29T07:53:34.489Z,759.00
2023-03-29T07:54:34.484Z,736.00
2023-03-29T07:55:34.498Z,746.00
2023-03-29T07:56:34.467Z,767.00
2023-03-29T07:57:34.467Z,772.00
2023-03-29T07:58:34.451Z,756.00
2023-03-29T07:59:34.542Z,764.00
2023-03-29T08:00:34.548Z,766.00
2023-03-29T08:01:34.429Z,759.00
2023-03-29T08:02:34.445Z,753.00
2023-03-29T08:03:34.459Z,755.00
2023-03-29T08:04:34.548Z,776.00
2023-03-29T08:05:41.389Z,745.00
2023-03-29T08:06:35.392Z,739.00
2023-03-29T08:07:34.422Z,728.00
2023-03-29T08:08:34.403Z,726.00
2023-03-29T08:09:34.401Z,713.00
2023-03-29T08:10:34.402Z,710.00
2023-03-29T08:11:34.370Z,711.00
2023-03-29T08:12:34.373Z,701.00
2023-03-29T08:13:34.381Z,674.00
2023-03-29T08:14:34.366Z,665.00
2023-03-29T08:15:34.516Z,659.00
2023-03-29T08:16:34.439Z,657.00
2023-03-29T08:17:34.471Z,680.00
2023-03-29T08:18:35.005Z,681.00
2023-03-29T08:19:34.576Z,691.00
2023-03-29T08:20:35.025Z,730.00
2023-03-29T08:21:34.669Z,741.00
2023-03-29T08:22:34.717Z,749.00
2023-03-29T08:23:34.798Z,843.00
2023-03-29T08:24:34.763Z,826.00
2023-03-29T08:25:35.067Z,832.00
2023-03-29T08:26:34.824Z,839.00
2023-03-29T08:27:34.854Z,859.00
2023-03-29T08:28:34.836Z,907.00
2023-03-29T08:29:34.895Z,913.00
2023-03-29T08:30:35.002Z,910.00
2023-03-29T08:31:35.030Z,995.00
2023-03-29T08:32:35.021Z,968.00
2023-03-29T08:33:35.070Z,962.00
2023-03-29T08:34:35.126Z,965.00
2023-03-29T08:35:35.171Z,1059.00
2023-03-29T08:36:35.205Z,1047.00
2023-03-29T08:37:35.278Z,1047.00
2023-03-29T08:38:35.526Z,989.00
2023-03-29T08:39:35.355Z,981.00
2023-03-29T08:40:35.417Z,973.00
2023-03-29T08:41:35.463Z,960.00
2023-03-29T08:42:35.501Z,919.00
2023-03-29T08:43:36.020Z,794.00
2023-03-29T08:44:35.589Z,796.00
2023-03-29T08:45:35.673Z,801.00
2023-03-29T08:46:35.964Z,756.00
2023-03-29T08:47:35.803Z,722.00
2023-03-29T08:48:35.835Z,728.00
2023-03-29T08:49:35.875Z,721.00
2023-03-29T08:50:35.935Z,719.00
2023-03-29T08:51:35.990Z,720.00
2023-03-29T08:52:36.026Z,747.00
2023-03-29T08:53:36.067Z,754.00
2023-03-29T08:54:36.928Z,758.00
2023-03-29T08:55:36.197Z,758.00
2023-03-29T08:56:36.258Z,752.00
2023-03-29T08:57:36.339Z,749.00
2023-03-29T08:58:36.392Z,746.00
2023-03-29T08:59:36.443Z,740.00
2023-03-29T09:00:36.506Z,737.00
2023-03-29T09:01:36.613Z,734.00
2023-03-29T09:02:36.748Z,728.00
2023-03-29T09:03:36.734Z,722.00
2023-03-29T09:04:36.733Z,720.00
2023-03-29T09:05:36.783Z,718.00
2023-03-29T09:06:36.885Z,711.00
2023-03-29T09:07:36.925Z,708.00
2023-03-29T09:08:37.064Z,704.00
2023-03-29T09:09:37.026Z,698.00
2023-03-29T09:10:37.100Z,695.00
2023-03-29T09:11:37.163Z,691.00
2023-03-29T09:12:37.924Z,687.00
2023-03-29T09:13:37.252Z,681.00
2023-03-29T09:14:37.331Z,679.00
2023-03-29T09:15:37.333Z,677.00
2023-03-29T09:16:37.599Z,673.00
2023-03-29T09:17:37.551Z,666.00
2023-03-29T09:18:37.551Z,652.00
2023-03-29T09:19:37.615Z,645.00
2023-03-29T09:20:37.628Z,646.00
2023-03-29T09:21:37.740Z,649.00
2023-03-29T09:22:38.033Z,651.00
2023-03-29T09:23:37.850Z,649.00
2023-03-29T09:24:37.893Z,646.00
2023-03-29T09:25:50.725Z,644.00
2023-03-29T09:26:38.951Z,642.00
2023-03-29T09:27:38.093Z,737.00
2023-03-29T09:28:37.989Z,762.00
2023-03-29T09:29:37.985Z,762.00
2023-03-29T09:30:37.917Z,768.00
2023-03-29T09:31:37.997Z,769.00
2023-03-29T09:32:38.111Z,774.00
2023-03-29T09:33:37.913Z,794.00
2023-03-29T09:34:37.946Z,965.00
2023-03-29T09:35:37.915Z,945.00
2023-03-29T09:36:38.008Z,942.00
2023-03-29T09:37:38.079Z,1017.00
2023-03-29T09:38:38.092Z,1042.00
2023-03-29T09:39:38.142Z,1047.00
2023-03-29T09:40:38.179Z,1003.00
2023-03-29T09:41:38.313Z,1019.00
2023-03-29T09:42:38.242Z,1038.00
2023-03-29T09:43:38.254Z,1081.00
2023-03-29T09:44:38.286Z,1113.00
2023-03-29T09:45:38.337Z,1138.00
2023-03-29T09:46:38.308Z,1179.00
2023-03-29T09:47:38.386Z,1183.00
2023-03-29T09:48:38.562Z,1181.00
2023-03-29T09:49:38.330Z,1150.00
2023-03-29T09:50:38.294Z,1176.00
2023-03-29T09:51:38.335Z,1182.00
2023-03-29T09:52:38.361Z,1124.00
2023-03-29T09:53:38.399Z,1134.00
2023-03-29T09:54:38.462Z,1154.00
2023-03-29T09:55:38.526Z,1189.00
2023-03-29T09:56:43.961Z,1184.00
2023-03-29T09:57:38.601Z,1199.00
2023-03-29T09:58:38.987Z,1217.00
2023-03-29T09:59:38.714Z,1217.00
2023-03-29T10:00:38.725Z,1229.00
2023-03-29T10:01:38.867Z,1235.00
2023-03-29T10:02:38.835Z,1233.00
2023-03-29T10:03:39.054Z,1233.00
2023-03-29T10:04:39.092Z,1250.00
2023-03-29T10:05:38.955Z,1264.00
2023-03-29T10:06:38.996Z,1265.00
2023-03-29T10:07:39.013Z,1041.00
2023-03-29T10:08:39.088Z,1104.00
2023-03-29T10:09:39.582Z,947.00
2023-03-29T10:10:39.183Z,812.00
2023-03-29T10:11:39.220Z,799.00
2023-03-29T10:12:39.246Z,878.00
2023-03-29T10:13:39.269Z,921.00
2023-03-29T10:14:39.275Z,890.00
2023-03-29T10:15:39.286Z,884.00
2023-03-29T10:16:39.317Z,872.00
2023-03-29T10:17:39.296Z,864.00
2023-03-29T10:18:39.318Z,860.00
2023-03-29T10:19:39.561Z,840.00
2023-03-29T10:20:39.389Z,858.00
2023-03-29T10:21:39.417Z,940.00
2023-03-29T10:22:39.424Z,928.00
2023-03-29T10:23:39.456Z,885.00
2023-03-29T10:24:39.567Z,837.00
2023-03-29T10:25:42.069Z,820.00
2023-03-29T10:26:39.501Z,810.00
2023-03-29T10:27:39.501Z,800.00
2023-03-29T10:28:39.474Z,786.00
2023-03-29T10:29:39.495Z,755.00
2023-03-29T10:30:39.469Z,725.00
2023-03-29T10:31:39.526Z,717.00
2023-03-29T10:32:39.475Z,714.00
2023-03-29T10:33:39.465Z,710.00
2023-03-29T10:34:39.464Z,714.00
2023-03-29T10:35:39.494Z,709.00
2023-03-29T10:36:39.427Z,687.00
2023-03-29T10:37:39.427Z,670.00
2023-03-29T10:38:39.437Z,657.00
2023-03-29T10:39:39.431Z,646.00
2023-03-29T10:40:39.399Z,644.00
2023-03-29T10:41:39.415Z,638.00
2023-03-29T10:42:39.379Z,635.00
2023-03-29T10:43:39.368Z,634.00
2023-03-29T10:44:39.390Z,635.00
2023-03-29T10:45:39.356Z,631.00
2023-03-29T10:46:39.390Z,637.00
2023-03-29T10:47:39.367Z,638.00
2023-03-29T10:48:39.332Z,637.00
2023-03-29T10:49:39.352Z,634.00
2023-03-29T10:50:39.342Z,630.00
2023-03-29T10:51:39.308Z,621.00
2023-03-29T10:52:39.322Z,615.00
2023-03-29T10:53:39.313Z,608.00
2023-03-29T10:54:39.315Z,601.00
2023-03-29T10:55:39.300Z,596.00
2023-03-29T10:56:39.367Z,596.00
2023-03-29T10:57:39.366Z,596.00
2023-03-29T10:58:39.282Z,597.00
2023-03-29T10:59:39.583Z,596.00
2023-03-29T11:00:39.590Z,594.00
2023-03-29T11:01:39.323Z,591.00
2023-03-29T11:02:39.337Z,590.00
2023-03-29T11:03:39.376Z,594.00
2023-03-29T11:04:39.281Z,592.00
2023-03-29T11:05:39.244Z,588.00
2023-03-29T11:06:40.080Z,592.00
2023-03-29T11:07:39.236Z,601.00
2023-03-29T11:08:39.202Z,608.00
2023-03-29T11:09:39.204Z,615.00
2023-03-29T11:10:39.187Z,621.00
2023-03-29T11:11:39.191Z,623.00
2023-03-29T11:12:39.225Z,625.00
2023-03-29T11:13:39.187Z,627.00
2023-03-29T11:14:39.289Z,626.00
2023-03-29T11:15:39.697Z,622.00
2023-03-29T11:16:39.170Z,623.00
2023-03-29T11:17:39.232Z,622.00
2023-03-29T11:18:39.142Z,614.00
2023-03-29T11:19:39.145Z,610.00
2023-03-29T11:20:39.613Z,614.00
2023-03-29T11:21:39.132Z,614.00
2023-03-29T11:22:39.148Z,608.00
2023-03-29T11:23:39.186Z,612.00
2023-03-29T11:24:39.192Z,638.00
2023-03-29T11:25:39.280Z,646.00
2023-03-29T11:26:39.279Z,643.00
2023-03-29T11:27:39.291Z,641.00
2023-03-29T11:28:39.289Z,644.00
2023-03-29T11:29:39.300Z,645.00
2023-03-29T11:30:39.382Z,648.00
2023-03-29T11:31:39.479Z,644.00
2023-03-29T11:32:39.526Z,646.00
2023-03-29T11:33:39.566Z,645.00
2023-03-29T11:34:39.614Z,643.00
2023-03-29T11:35:39.700Z,641.00
2023-03-29T11:36:39.748Z,639.00
2023-03-29T11:37:39.791Z,634.00
2023-03-29T11:38:39.902Z,632.00
2023-03-29T11:39:39.907Z,631.00
2023-03-29T11:40:39.985Z,629.00
2023-03-29T11:41:40.038Z,629.00
2023-03-29T11:42:40.076Z,630.00
2023-03-29T11:43:40.138Z,630.00
2023-03-29T11:44:40.207Z,629.00
2023-03-29T11:45:40.257Z,625.00
2023-03-29T11:46:40.414Z,625.00
2023-03-29T11:47:40.420Z,626.00
2023-03-29T11:48:40.416Z,622.00
2023-03-29T11:49:40.487Z,621.00
2023-03-29T11:50:40.525Z,618.00
2023-03-29T11:51:40.588Z,618.00
2023-03-29T11:52:40.663Z,619.00
2023-03-29T11:53:40.695Z,617.00
2023-03-29T11:54:40.737Z,615.00
2023-03-29T11:55:41.134Z,614.00
2023-03-29T11:56:40.935Z,615.00
2023-03-29T11:57:41.595Z,613.00
2023-03-29T11:58:41.625Z,614.00
2023-03-29T11:59:41.085Z,614.00
2023-03-29T12:00:41.119Z,613.00
2023-03-29T12:01:41.158Z,611.00
2023-03-29T12:02:41.682Z,610.00
2023-03-29T12:03:41.830Z,607.00
2023-03-29T12:04:41.337Z,606.00
2023-03-29T12:05:41.351Z,607.00
2023-03-29T12:06:41.404Z,605.00
2023-03-29T12:07:41.461Z,604.00
2023-03-29T12:08:41.508Z,603.00
2023-03-29T12:09:41.601Z,603.00
2023-03-29T12:10:41.641Z,599.00
2023-03-29T12:11:41.671Z,600.00
2023-03-29T12:12:42.106Z,600.00
2023-03-29T12:13:41.801Z,600.00
2023-03-29T12:14:41.820Z,599.00
2023-03-29T12:15:41.890Z,597.00
2023-03-29T12:16:42.001Z,595.00
2023-03-29T12:17:42.039Z,594.00
2023-03-29T12:18:42.080Z,594.00
2023-03-29T12:19:43.840Z,591.00
2023-03-29T12:20:42.136Z,587.00
2023-03-29T12:21:42.620Z,586.00
2023-03-29T12:22:42.245Z,585.00
2023-03-29T12:23:42.298Z,587.00
2023-03-29T12:24:42.346Z,587.00
2023-03-29T12:25:42.393Z,588.00
2023-03-29T12:26:42.453Z,590.00